메인 페이지
METAR-TAF:

METAR-TAF

공항 :

포스두이구아수, 파라나, 브라질

위도: 25-31S, 경도: 054-35W, 고도: 180m

현재 날씨관측

예보는 52분 전, 21:00시(UTC)에 발표되었습니다.
남서4kt
온도 14°C
습도 94%
기압 1018 hPa
시정 10km 이상
고도 1500ft 상공 구름 보통
고도 7000ft 상공 흐림

METAR: SBFI 012100Z 22004KT 9999 SCT015 OVC070 14/13 Q1018

시각: 18:52 (21:52 UTC)

예보

예보는 6 시간 52분 전, 15:00시(UTC)에 발표되었습니다.
예보 대상 시간: 01일 18시부터 02일 18시까지 (UTC)
8kt
시정: 7000m
고도 1500ft 상공 구름 많음
확률 40%
01일 22시부터 02일 04시까지 (UTC)
시정: 2000m
고도 500ft 상공 구름 많음
박무
확률 40%
02일 07시부터 02일 10시까지 (UTC)
시정: 0800m
고도 300ft 상공 구름 많음
안개
확률 30%
02일 11시부터 02일 13시까지 (UTC)
시정: 5000m
고도 1000ft 상공 구름 많음
전환 중
02일 14시부터 02일 15시까지 (UTC)
고도 2000ft 상공 구름 조금

TAF: SBFI 011500Z 0118/0218 18008KT 7000 BKN015 TX25/0119Z TN14/0208Z PROB40 0122/0204 2000 BR BKN005 PROB40 0207/0210 0800 FG BKN003 PROB30 0211/0213 5000 RA BKN010 BECMG 0214/0215 FEW020 RMK PEI

4,000개 이상의 공항 관측 자료 및 예보 (METAR 및 TAF 보고).

지도상에서 검색 가능한 기상관측소가 노란 점과 빨간 점으로 표시되어 있습니다.

기상관측소 명을 보려면 표시 위로 마우스를 이동하세요.

날씨 관측과 예보를 보려면 클릭하세요.

지도 변경 : 확대하려면 엑스 표시가 있는 녹색 버튼, 축소하려면 빼기 표시가 있는 녹색 버튼, 다음 페이지의 지도를 보려면 녹색 화살표를 클릭하세요.


METAR-TAF: